sensor_id;sensor_type;location;lat;lon;timestamp;temperature;humidity
59881;DHT22;45751;51.380;10.326;2022-08-16T00:01:13;21.20;69.00
59881;DHT22;45751;51.380;10.326;2022-08-16T00:03:40;21.10;69.40
59881;DHT22;45751;51.380;10.326;2022-08-16T00:06:07;21.10;69.60
59881;DHT22;45751;51.380;10.326;2022-08-16T00:08:36;21.10;69.90
59881;DHT22;45751;51.380;10.326;2022-08-16T00:11:09;21.00;70.10
59881;DHT22;45751;51.380;10.326;2022-08-16T00:13:43;20.90;70.30
59881;DHT22;45751;51.380;10.326;2022-08-16T00:16:26;20.90;70.50
59881;DHT22;45751;51.380;10.326;2022-08-16T00:19:25;20.90;70.50
59881;DHT22;45751;51.380;10.326;2022-08-16T00:21:55;20.80;70.60
59881;DHT22;45751;51.380;10.326;2022-08-16T00:24:32;20.80;70.40
59881;DHT22;45751;51.380;10.326;2022-08-16T00:27:02;20.80;70.20
59881;DHT22;45751;51.380;10.326;2022-08-16T00:29:30;20.80;70.10
59881;DHT22;45751;51.380;10.326;2022-08-16T00:31:58;20.70;70.00
59881;DHT22;45751;51.380;10.326;2022-08-16T00:34:33;20.70;70.00
59881;DHT22;45751;51.380;10.326;2022-08-16T00:37:21;20.80;70.00
59881;DHT22;45751;51.380;10.326;2022-08-16T00:39:52;20.70;70.10
59881;DHT22;45751;51.380;10.326;2022-08-16T00:42:25;20.70;70.30
59881;DHT22;45751;51.380;10.326;2022-08-16T00:45:05;20.70;70.20
59881;DHT22;45751;51.380;10.326;2022-08-16T00:47:37;20.70;70.20
59881;DHT22;45751;51.380;10.326;2022-08-16T00:50:08;20.90;70.40
59881;DHT22;45751;51.380;10.326;2022-08-16T00:52:39;20.60;70.30
59881;DHT22;45751;51.380;10.326;2022-08-16T00:55:17;20.60;70.60
59881;DHT22;45751;51.380;10.326;2022-08-16T00:57:46;20.60;70.90
59881;DHT22;45751;51.380;10.326;2022-08-16T01:00:29;20.60;70.90
59881;DHT22;45751;51.380;10.326;2022-08-16T01:02:58;20.60;71.10
59881;DHT22;45751;51.380;10.326;2022-08-16T01:05:25;20.60;70.90
59881;DHT22;45751;51.380;10.326;2022-08-16T01:07:54;20.60;71.40
59881;DHT22;45751;51.380;10.326;2022-08-16T01:10:22;20.60;71.60
59881;DHT22;45751;51.380;10.326;2022-08-16T01:13:23;20.50;71.80
59881;DHT22;45751;51.380;10.326;2022-08-16T01:15:56;20.50;71.40
59881;DHT22;45751;51.380;10.326;2022-08-16T01:18:29;20.50;71.70
59881;DHT22;45751;51.380;10.326;2022-08-16T01:24:01;20.50;71.80
59881;DHT22;45751;51.380;10.326;2022-08-16T01:26:53;20.60;71.90
59881;DHT22;45751;51.380;10.326;2022-08-16T01:29:29;20.40;71.60
59881;DHT22;45751;51.380;10.326;2022-08-16T01:32:17;20.50;71.20
59881;DHT22;45751;51.380;10.326;2022-08-16T01:35:00;20.50;71.10
59881;DHT22;45751;51.380;10.326;2022-08-16T01:37:28;20.60;71.00
59881;DHT22;45751;51.380;10.326;2022-08-16T01:40:04;20.60;71.00
59881;DHT22;45751;51.380;10.326;2022-08-16T01:42:33;20.60;71.00
59881;DHT22;45751;51.380;10.326;2022-08-16T01:45:00;20.60;71.20
59881;DHT22;45751;51.380;10.326;2022-08-16T01:47:28;20.50;71.40
59881;DHT22;45751;51.380;10.326;2022-08-16T01:49:58;20.50;72.00
59881;DHT22;45751;51.380;10.326;2022-08-16T01:52:46;20.40;73.20
59881;DHT22;45751;51.380;10.326;2022-08-16T01:55:26;20.30;72.00
59881;DHT22;45751;51.380;10.326;2022-08-16T01:58:03;20.30;71.80
59881;DHT22;45751;51.380;10.326;2022-08-16T02:00:31;20.30;71.30
59881;DHT22;45751;51.380;10.326;2022-08-16T02:02:59;20.20;71.40
59881;DHT22;45751;51.380;10.326;2022-08-16T02:05:28;20.20;71.30
59881;DHT22;45751;51.380;10.326;2022-08-16T02:07:58;20.20;71.30
59881;DHT22;45751;51.380;10.326;2022-08-16T02:10:27;20.20;71.40
59881;DHT22;45751;51.380;10.326;2022-08-16T02:12:55;20.20;71.40
59881;DHT22;45751;51.380;10.326;2022-08-16T02:15:29;20.20;71.50
59881;DHT22;45751;51.380;10.326;2022-08-16T02:18:04;20.20;71.60
59881;DHT22;45751;51.380;10.326;2022-08-16T02:20:40;20.20;71.80
59881;DHT22;45751;51.380;10.326;2022-08-16T02:23:12;20.20;72.10
59881;DHT22;45751;51.380;10.326;2022-08-16T02:25:43;20.20;72.40
59881;DHT22;45751;51.380;10.326;2022-08-16T02:28:19;20.10;72.80
59881;DHT22;45751;51.380;10.326;2022-08-16T02:30:50;20.10;73.10
59881;DHT22;45751;51.380;10.326;2022-08-16T02:33:19;19.90;72.70
59881;DHT22;45751;51.380;10.326;2022-08-16T02:36:07;20.00;73.30
59881;DHT22;45751;51.380;10.326;2022-08-16T02:38:40;20.00;73.50
59881;DHT22;45751;51.380;10.326;2022-08-16T02:41:09;20.00;73.80
59881;DHT22;45751;51.380;10.326;2022-08-16T02:43:38;19.90;74.20
59881;DHT22;45751;51.380;10.326;2022-08-16T02:46:07;19.90;74.50
59881;DHT22;45751;51.380;10.326;2022-08-16T02:48:36;19.80;74.80
59881;DHT22;45751;51.380;10.326;2022-08-16T02:51:06;19.80;75.20
59881;DHT22;45751;51.380;10.326;2022-08-16T02:53:41;19.80;75.30
59881;DHT22;45751;51.380;10.326;2022-08-16T02:56:15;19.80;75.30
59881;DHT22;45751;51.380;10.326;2022-08-16T02:58:48;19.70;75.50
59881;DHT22;45751;51.380;10.326;2022-08-16T03:01:19;19.70;75.80
59881;DHT22;45751;51.380;10.326;2022-08-16T03:04:07;19.60;76.00
59881;DHT22;45751;51.380;10.326;2022-08-16T03:06:55;19.60;76.30
59881;DHT22;45751;51.380;10.326;2022-08-16T03:09:36;19.60;76.70
59881;DHT22;45751;51.380;10.326;2022-08-16T03:12:04;19.60;76.90
59881;DHT22;45751;51.380;10.326;2022-08-16T03:14:32;19.50;76.90
59881;DHT22;45751;51.380;10.326;2022-08-16T03:17:00;19.50;77.30
59881;DHT22;45751;51.380;10.326;2022-08-16T03:19:34;19.40;77.60
59881;DHT22;45751;51.380;10.326;2022-08-16T03:22:22;19.30;78.00
59881;DHT22;45751;51.380;10.326;2022-08-16T03:24:58;19.30;78.10
59881;DHT22;45751;51.380;10.326;2022-08-16T03:27:29;19.30;78.00
59881;DHT22;45751;51.380;10.326;2022-08-16T03:30:08;19.30;77.70
59881;DHT22;45751;51.380;10.326;2022-08-16T03:32:57;19.30;77.40
59881;DHT22;45751;51.380;10.326;2022-08-16T03:35:32;19.40;77.20
59881;DHT22;45751;51.380;10.326;2022-08-16T03:38:14;19.40;77.10
59881;DHT22;45751;51.380;10.326;2022-08-16T03:41:02;19.40;76.90
59881;DHT22;45751;51.380;10.326;2022-08-16T03:43:40;19.40;76.90
59881;DHT22;45751;51.380;10.326;2022-08-16T03:46:21;19.40;76.80
59881;DHT22;45751;51.380;10.326;2022-08-16T03:49:10;19.40;76.80
59881;DHT22;45751;51.380;10.326;2022-08-16T03:51:41;19.40;76.80
59881;DHT22;45751;51.380;10.326;2022-08-16T03:54:11;19.40;76.80
59881;DHT22;45751;51.380;10.326;2022-08-16T03:56:41;19.40;76.70
59881;DHT22;45751;51.380;10.326;2022-08-16T03:59:27;19.40;76.70
59881;DHT22;45751;51.380;10.326;2022-08-16T04:01:58;19.30;76.80
59881;DHT22;45751;51.380;10.326;2022-08-16T04:04:27;19.40;76.90
59881;DHT22;45751;51.380;10.326;2022-08-16T04:07:05;19.30;77.10
59881;DHT22;45751;51.380;10.326;2022-08-16T04:09:36;19.30;77.40
59881;DHT22;45751;51.380;10.326;2022-08-16T04:12:07;19.30;77.40
59881;DHT22;45751;51.380;10.326;2022-08-16T04:14:55;19.30;77.40
59881;DHT22;45751;51.380;10.326;2022-08-16T04:17:24;19.30;77.40
59881;DHT22;45751;51.380;10.326;2022-08-16T04:19:53;19.30;77.50
59881;DHT22;45751;51.380;10.326;2022-08-16T04:22:24;19.30;77.60
59881;DHT22;45751;51.380;10.326;2022-08-16T04:24:57;19.20;77.70
59881;DHT22;45751;51.380;10.326;2022-08-16T04:27:31;19.20;78.00
59881;DHT22;45751;51.380;10.326;2022-08-16T04:30:02;19.20;79.40
59881;DHT22;45751;51.380;10.326;2022-08-16T04:32:40;19.10;78.60
59881;DHT22;45751;51.380;10.326;2022-08-16T04:35:15;19.20;79.10
59881;DHT22;45751;51.380;10.326;2022-08-16T04:37:44;19.10;79.40
59881;DHT22;45751;51.380;10.326;2022-08-16T04:40:20;19.10;79.80
59881;DHT22;45751;51.380;10.326;2022-08-16T04:42:52;19.10;80.20
59881;DHT22;45751;51.380;10.326;2022-08-16T04:45:22;19.00;80.40
59881;DHT22;45751;51.380;10.326;2022-08-16T04:48:07;19.00;80.80
59881;DHT22;45751;51.380;10.326;2022-08-16T04:50:44;19.00;80.90
59881;DHT22;45751;51.380;10.326;2022-08-16T04:53:15;18.90;81.20
59881;DHT22;45751;51.380;10.326;2022-08-16T04:55:47;18.90;81.50
59881;DHT22;45751;51.380;10.326;2022-08-16T04:58:20;18.90;81.70
59881;DHT22;45751;51.380;10.326;2022-08-16T05:01:07;18.90;82.30
59881;DHT22;45751;51.380;10.326;2022-08-16T05:03:35;18.80;82.50
59881;DHT22;45751;51.380;10.326;2022-08-16T05:06:22;18.80;82.50
59881;DHT22;45751;51.380;10.326;2022-08-16T05:09:10;18.80;83.00
59881;DHT22;45751;51.380;10.326;2022-08-16T05:11:37;18.80;83.20
59881;DHT22;45751;51.380;10.326;2022-08-16T05:14:05;18.80;83.50
59881;DHT22;45751;51.380;10.326;2022-08-16T05:16:36;18.80;83.60
59881;DHT22;45751;51.380;10.326;2022-08-16T05:19:07;18.80;83.00
59881;DHT22;45751;51.380;10.326;2022-08-16T05:21:46;18.80;83.40
59881;DHT22;45751;51.380;10.326;2022-08-16T05:24:17;18.80;84.10
59881;DHT22;45751;51.380;10.326;2022-08-16T05:26:51;18.90;84.10
59881;DHT22;45751;51.380;10.326;2022-08-16T05:29:19;18.90;84.90
59881;DHT22;45751;51.380;10.326;2022-08-16T05:32:04;18.90;85.00
59881;DHT22;45751;51.380;10.326;2022-08-16T05:34:51;18.90;85.20
59881;DHT22;45751;51.380;10.326;2022-08-16T05:37:20;19.00;85.60
59881;DHT22;45751;51.380;10.326;2022-08-16T05:39:51;19.00;85.90
59881;DHT22;45751;51.380;10.326;2022-08-16T05:42:21;19.00;85.80
59881;DHT22;45751;51.380;10.326;2022-08-16T05:45:03;19.10;85.90
59881;DHT22;45751;51.380;10.326;2022-08-16T05:47:33;19.10;86.30
59881;DHT22;45751;51.380;10.326;2022-08-16T05:50:09;19.10;86.10
59881;DHT22;45751;51.380;10.326;2022-08-16T05:52:46;19.10;86.20
59881;DHT22;45751;51.380;10.326;2022-08-16T05:55:13;19.20;86.40
59881;DHT22;45751;51.380;10.326;2022-08-16T05:57:40;19.20;86.50
59881;DHT22;45751;51.380;10.326;2022-08-16T06:00:09;19.20;86.40
59881;DHT22;45751;51.380;10.326;2022-08-16T06:02:51;19.20;86.30
59881;DHT22;45751;51.380;10.326;2022-08-16T06:05:43;19.20;86.50
59881;DHT22;45751;51.380;10.326;2022-08-16T06:08:13;19.20;86.40
59881;DHT22;45751;51.380;10.326;2022-08-16T06:10:59;19.20;86.20
59881;DHT22;45751;51.380;10.326;2022-08-16T06:13:38;19.30;86.10
59881;DHT22;45751;51.380;10.326;2022-08-16T06:16:10;19.30;86.10
59881;DHT22;45751;51.380;10.326;2022-08-16T06:18:45;19.30;85.70
59881;DHT22;45751;51.380;10.326;2022-08-16T06:21:14;19.40;85.90
59881;DHT22;45751;51.380;10.326;2022-08-16T06:23:54;19.40;85.50
59881;DHT22;45751;51.380;10.326;2022-08-16T06:26:22;19.50;85.60
59881;DHT22;45751;51.380;10.326;2022-08-16T06:29:00;19.50;85.80
59881;DHT22;45751;51.380;10.326;2022-08-16T06:31:36;19.50;85.00
59881;DHT22;45751;51.380;10.326;2022-08-16T06:34:12;19.50;85.20
59881;DHT22;45751;51.380;10.326;2022-08-16T06:37:01;19.60;85.20
59881;DHT22;45751;51.380;10.326;2022-08-16T06:39:32;19.60;85.20
59881;DHT22;45751;51.380;10.326;2022-08-16T06:42:05;19.60;84.90
59881;DHT22;45751;51.380;10.326;2022-08-16T06:44:45;19.60;85.20
59881;DHT22;45751;51.380;10.326;2022-08-16T06:47:26;19.70;85.30
59881;DHT22;45751;51.380;10.326;2022-08-16T06:50:14;19.70;84.70
59881;DHT22;45751;51.380;10.326;2022-08-16T06:52:55;19.70;84.50
59881;DHT22;45751;51.380;10.326;2022-08-16T06:55:27;19.70;84.90
59881;DHT22;45751;51.380;10.326;2022-08-16T06:58:02;19.80;84.90
59881;DHT22;45751;51.380;10.326;2022-08-16T07:00:48;19.80;84.60
59881;DHT22;45751;51.380;10.326;2022-08-16T07:03:16;19.80;84.50
59881;DHT22;45751;51.380;10.326;2022-08-16T07:05:55;19.80;84.20
59881;DHT22;45751;51.380;10.326;2022-08-16T07:08:32;19.90;83.90
59881;DHT22;45751;51.380;10.326;2022-08-16T07:11:00;19.90;84.00
59881;DHT22;45751;51.380;10.326;2022-08-16T07:13:30;19.90;83.70
59881;DHT22;45751;51.380;10.326;2022-08-16T07:16:18;20.00;83.70
59881;DHT22;45751;51.380;10.326;2022-08-16T07:18:47;20.00;82.80
59881;DHT22;45751;51.380;10.326;2022-08-16T07:21:30;20.10;82.90
59881;DHT22;45751;51.380;10.326;2022-08-16T07:24:17;20.10;82.60
59881;DHT22;45751;51.380;10.326;2022-08-16T07:26:59;20.10;82.10
59881;DHT22;45751;51.380;10.326;2022-08-16T07:29:27;20.10;81.90
59881;DHT22;45751;51.380;10.326;2022-08-16T07:31:58;20.20;82.10
59881;DHT22;45751;51.380;10.326;2022-08-16T07:34:28;20.20;82.10
59881;DHT22;45751;51.380;10.326;2022-08-16T07:37:06;20.20;82.20
59881;DHT22;45751;51.380;10.326;2022-08-16T07:39:55;20.30;81.90
59881;DHT22;45751;51.380;10.326;2022-08-16T07:42:23;20.30;80.10
59881;DHT22;45751;51.380;10.326;2022-08-16T07:45:02;20.40;80.20
59881;DHT22;45751;51.380;10.326;2022-08-16T07:47:39;20.40;79.90
59881;DHT22;45751;51.380;10.326;2022-08-16T07:50:10;20.40;79.10
59881;DHT22;45751;51.380;10.326;2022-08-16T07:52:57;20.40;78.90
59881;DHT22;45751;51.380;10.326;2022-08-16T07:55:28;20.50;78.90
59881;DHT22;45751;51.380;10.326;2022-08-16T07:58:13;20.50;78.80
59881;DHT22;45751;51.380;10.326;2022-08-16T08:01:00;20.50;78.00
59881;DHT22;45751;51.380;10.326;2022-08-16T08:03:39;20.60;78.00
59881;DHT22;45751;51.380;10.326;2022-08-16T08:06:15;20.60;77.70
59881;DHT22;45751;51.380;10.326;2022-08-16T08:08:44;20.60;76.70
59881;DHT22;45751;51.380;10.326;2022-08-16T08:11:18;20.80;76.70
59881;DHT22;45751;51.380;10.326;2022-08-16T08:13:47;20.70;76.60
59881;DHT22;45751;51.380;10.326;2022-08-16T08:16:17;20.70;76.80
59881;DHT22;45751;51.380;10.326;2022-08-16T08:18:48;20.80;76.50
59881;DHT22;45751;51.380;10.326;2022-08-16T08:21:24;20.90;75.20
59881;DHT22;45751;51.380;10.326;2022-08-16T08:23:54;20.90;75.40
59881;DHT22;45751;51.380;10.326;2022-08-16T08:26:22;21.00;75.10
59881;DHT22;45751;51.380;10.326;2022-08-16T08:28:50;21.00;73.70
59881;DHT22;45751;51.380;10.326;2022-08-16T08:31:19;21.00;72.30
59881;DHT22;45751;51.380;10.326;2022-08-16T08:33:46;21.10;72.60
59881;DHT22;45751;51.380;10.326;2022-08-16T08:36:29;21.10;72.00
59881;DHT22;45751;51.380;10.326;2022-08-16T08:39:09;21.10;72.40
59881;DHT22;45751;51.380;10.326;2022-08-16T08:41:43;21.20;72.00
59881;DHT22;45751;51.380;10.326;2022-08-16T08:44:17;21.20;71.80
59881;DHT22;45751;51.380;10.326;2022-08-16T08:47:03;21.10;71.40
59881;DHT22;45751;51.380;10.326;2022-08-16T08:49:38;21.30;71.90
59881;DHT22;45751;51.380;10.326;2022-08-16T08:52:13;21.30;71.20
59881;DHT22;45751;51.380;10.326;2022-08-16T08:55:05;21.40;70.80
59881;DHT22;45751;51.380;10.326;2022-08-16T08:57:42;21.40;69.50
59881;DHT22;45751;51.380;10.326;2022-08-16T09:00:32;21.50;69.00
59881;DHT22;45751;51.380;10.326;2022-08-16T09:03:17;21.50;69.00
59881;DHT22;45751;51.380;10.326;2022-08-16T09:05:44;21.60;69.40
59881;DHT22;45751;51.380;10.326;2022-08-16T09:08:17;21.60;69.00
59881;DHT22;45751;51.380;10.326;2022-08-16T09:10:59;21.60;68.00
59881;DHT22;45751;51.380;10.326;2022-08-16T09:13:29;21.60;67.40
59881;DHT22;45751;51.380;10.326;2022-08-16T09:16:00;21.70;67.90
59881;DHT22;45751;51.380;10.326;2022-08-16T09:18:29;21.70;66.90
59881;DHT22;45751;51.380;10.326;2022-08-16T09:21:03;21.80;65.70
59881;DHT22;45751;51.380;10.326;2022-08-16T09:23:35;21.80;64.90
59881;DHT22;45751;51.380;10.326;2022-08-16T09:26:06;21.80;63.30
59881;DHT22;45751;51.380;10.326;2022-08-16T09:28:54;21.80;63.40
59881;DHT22;45751;51.380;10.326;2022-08-16T09:31:41;21.80;63.60
59881;DHT22;45751;51.380;10.326;2022-08-16T09:34:10;21.90;62.50
59881;DHT22;45751;51.380;10.326;2022-08-16T09:36:44;21.90;62.20
59881;DHT22;45751;51.380;10.326;2022-08-16T09:39:12;22.00;62.30
59881;DHT22;45751;51.380;10.326;2022-08-16T09:41:45;22.10;62.20
59881;DHT22;45751;51.380;10.326;2022-08-16T09:44:20;22.10;62.30
59881;DHT22;45751;51.380;10.326;2022-08-16T09:47:09;22.10;61.80
59881;DHT22;45751;51.380;10.326;2022-08-16T09:49:37;22.10;60.80
59881;DHT22;45751;51.380;10.326;2022-08-16T09:52:08;22.20;60.00
59881;DHT22;45751;51.380;10.326;2022-08-16T09:54:36;22.20;59.60
59881;DHT22;45751;51.380;10.326;2022-08-16T09:57:04;22.10;59.20
59881;DHT22;45751;51.380;10.326;2022-08-16T09:59:31;22.30;59.30
59881;DHT22;45751;51.380;10.326;2022-08-16T10:02:05;22.30;59.10
59881;DHT22;45751;51.380;10.326;2022-08-16T10:04:53;22.30;58.60
59881;DHT22;45751;51.380;10.326;2022-08-16T10:07:22;22.30;58.40
59881;DHT22;45751;51.380;10.326;2022-08-16T10:09:49;22.20;58.10
59881;DHT22;45751;51.380;10.326;2022-08-16T10:12:26;22.20;58.30
59881;DHT22;45751;51.380;10.326;2022-08-16T10:15:17;22.20;58.30
59881;DHT22;45751;51.380;10.326;2022-08-16T10:17:50;22.20;58.30
59881;DHT22;45751;51.380;10.326;2022-08-16T10:20:30;22.20;58.30
59881;DHT22;45751;51.380;10.326;2022-08-16T10:22:59;22.30;58.50
59881;DHT22;45751;51.380;10.326;2022-08-16T10:25:35;22.30;57.60
59881;DHT22;45751;51.380;10.326;2022-08-16T10:28:24;22.40;56.80
59881;DHT22;45751;51.380;10.326;2022-08-16T10:30:57;22.40;56.70
59881;DHT22;45751;51.380;10.326;2022-08-16T10:33:26;22.40;57.10
59881;DHT22;45751;51.380;10.326;2022-08-16T10:36:00;22.40;57.20
59881;DHT22;45751;51.380;10.326;2022-08-16T10:38:31;22.40;56.20
59881;DHT22;45751;51.380;10.326;2022-08-16T10:40:59;22.50;56.40
59881;DHT22;45751;51.380;10.326;2022-08-16T10:43:27;22.60;56.70
59881;DHT22;45751;51.380;10.326;2022-08-16T10:45:57;22.70;56.90
59881;DHT22;45751;51.380;10.326;2022-08-16T10:48:27;22.80;56.50
59881;DHT22;45751;51.380;10.326;2022-08-16T10:50:56;22.90;56.00
59881;DHT22;45751;51.380;10.326;2022-08-16T10:53:30;23.00;55.40
59881;DHT22;45751;51.380;10.326;2022-08-16T10:56:06;23.10;55.20
59881;DHT22;45751;51.380;10.326;2022-08-16T10:58:54;23.10;55.20
59881;DHT22;45751;51.380;10.326;2022-08-16T11:01:43;23.20;55.10
59881;DHT22;45751;51.380;10.326;2022-08-16T11:04:30;23.30;54.80
59881;DHT22;45751;51.380;10.326;2022-08-16T11:07:17;23.30;54.10
59881;DHT22;45751;51.380;10.326;2022-08-16T11:10:04;23.30;54.10
59881;DHT22;45751;51.380;10.326;2022-08-16T11:12:51;23.30;53.80
59881;DHT22;45751;51.380;10.326;2022-08-16T11:15:19;23.30;53.80
59881;DHT22;45751;51.380;10.326;2022-08-16T11:17:47;23.30;53.70
59881;DHT22;45751;51.380;10.326;2022-08-16T11:20:34;23.30;53.70
59881;DHT22;45751;51.380;10.326;2022-08-16T11:23:09;23.30;53.90
59881;DHT22;45751;51.380;10.326;2022-08-16T11:25:37;23.30;54.20
59881;DHT22;45751;51.380;10.326;2022-08-16T11:28:24;23.30;54.50
59881;DHT22;45751;51.380;10.326;2022-08-16T11:31:11;23.30;54.80
59881;DHT22;45751;51.380;10.326;2022-08-16T11:33:39;23.30;54.80
59881;DHT22;45751;51.380;10.326;2022-08-16T11:36:21;23.30;54.70
59881;DHT22;45751;51.380;10.326;2022-08-16T11:38:54;23.30;54.70
59881;DHT22;45751;51.380;10.326;2022-08-16T11:41:27;23.30;54.50
59881;DHT22;45751;51.380;10.326;2022-08-16T11:43:58;23.40;53.80
59881;DHT22;45751;51.380;10.326;2022-08-16T11:46:26;23.40;53.10
59881;DHT22;45751;51.380;10.326;2022-08-16T11:49:12;23.50;53.50
59881;DHT22;45751;51.380;10.326;2022-08-16T11:51:41;23.70;52.80
59881;DHT22;45751;51.380;10.326;2022-08-16T11:54:13;23.80;52.30
59881;DHT22;45751;51.380;10.326;2022-08-16T11:56:51;23.90;52.00
59881;DHT22;45751;51.380;10.326;2022-08-16T11:59:23;24.10;51.20
59881;DHT22;45751;51.380;10.326;2022-08-16T12:01:56;24.20;50.90
59881;DHT22;45751;51.380;10.326;2022-08-16T12:04:26;24.30;50.40
59881;DHT22;45751;51.380;10.326;2022-08-16T12:06:53;24.40;50.00
59881;DHT22;45751;51.380;10.326;2022-08-16T12:09:21;24.50;49.80
59881;DHT22;45751;51.380;10.326;2022-08-16T12:11:50;24.50;49.50
59881;DHT22;45751;51.380;10.326;2022-08-16T12:14:18;24.60;49.40
59881;DHT22;45751;51.380;10.326;2022-08-16T12:16:50;24.80;49.00
59881;DHT22;45751;51.380;10.326;2022-08-16T12:19:23;24.90;48.20
59881;DHT22;45751;51.380;10.326;2022-08-16T12:22:03;25.00;47.60
59881;DHT22;45751;51.380;10.326;2022-08-16T12:24:46;25.10;47.20
59881;DHT22;45751;51.380;10.326;2022-08-16T12:27:20;25.10;46.80
59881;DHT22;45751;51.380;10.326;2022-08-16T12:29:50;25.10;46.50
59881;DHT22;45751;51.380;10.326;2022-08-16T12:32:17;25.20;46.10
59881;DHT22;45751;51.380;10.326;2022-08-16T12:35:07;25.20;46.00
59881;DHT22;45751;51.380;10.326;2022-08-16T12:37:34;25.30;45.80
59881;DHT22;45751;51.380;10.326;2022-08-16T12:40:03;25.30;45.30
59881;DHT22;45751;51.380;10.326;2022-08-16T12:42:30;25.40;44.50
59881;DHT22;45751;51.380;10.326;2022-08-16T12:45:20;25.50;44.50
59881;DHT22;45751;51.380;10.326;2022-08-16T12:47:48;25.50;44.20
59881;DHT22;45751;51.380;10.326;2022-08-16T12:50:54;25.60;44.10
59881;DHT22;45751;51.380;10.326;2022-08-16T12:53:23;25.70;44.10
59881;DHT22;45751;51.380;10.326;2022-08-16T12:55:51;25.70;44.10
59881;DHT22;45751;51.380;10.326;2022-08-16T12:58:19;25.70;44.10
59881;DHT22;45751;51.380;10.326;2022-08-16T13:01:08;26.00;44.00
59881;DHT22;45751;51.380;10.326;2022-08-16T13:03:35;26.10;43.00
59881;DHT22;45751;51.380;10.326;2022-08-16T13:06:06;26.30;42.50
59881;DHT22;45751;51.380;10.326;2022-08-16T13:08:33;26.30;42.30
59881;DHT22;45751;51.380;10.326;2022-08-16T13:11:02;26.20;42.00
59881;DHT22;45751;51.380;10.326;2022-08-16T13:13:34;26.10;42.00
59881;DHT22;45751;51.380;10.326;2022-08-16T13:16:03;26.10;42.00
59881;DHT22;45751;51.380;10.326;2022-08-16T13:18:46;26.10;41.80
59881;DHT22;45751;51.380;10.326;2022-08-16T13:21:20;26.10;41.70
59881;DHT22;45751;51.380;10.326;2022-08-16T13:23:49;26.10;41.30
59881;DHT22;45751;51.380;10.326;2022-08-16T13:26:22;26.20;40.90
59881;DHT22;45751;51.380;10.326;2022-08-16T13:28:49;26.30;41.20
59881;DHT22;45751;51.380;10.326;2022-08-16T13:31:16;26.40;40.90
59881;DHT22;45751;51.380;10.326;2022-08-16T13:33:43;26.40;40.50
59881;DHT22;45751;51.380;10.326;2022-08-16T13:36:11;26.40;40.30
59881;DHT22;45751;51.380;10.326;2022-08-16T13:38:58;26.30;40.50
59881;DHT22;45751;51.380;10.326;2022-08-16T13:41:25;26.30;40.10
59881;DHT22;45751;51.380;10.326;2022-08-16T13:43:59;26.20;40.00
59881;DHT22;45751;51.380;10.326;2022-08-16T13:46:34;26.20;40.30
59881;DHT22;45751;51.380;10.326;2022-08-16T13:49:02;26.20;40.60
59881;DHT22;45751;51.380;10.326;2022-08-16T13:51:31;26.10;40.40
59881;DHT22;45751;51.380;10.326;2022-08-16T13:53:59;26.20;40.40
59881;DHT22;45751;51.380;10.326;2022-08-16T13:56:34;26.30;40.30
59881;DHT22;45751;51.380;10.326;2022-08-16T13:59:07;26.40;40.10
59881;DHT22;45751;51.380;10.326;2022-08-16T14:01:49;26.40;40.20
59881;DHT22;45751;51.380;10.326;2022-08-16T14:04:27;26.40;40.30
59881;DHT22;45751;51.380;10.326;2022-08-16T14:06:56;26.40;39.80
59881;DHT22;45751;51.380;10.326;2022-08-16T14:09:23;26.30;39.70
59881;DHT22;45751;51.380;10.326;2022-08-16T14:11:53;26.40;39.70
59881;DHT22;45751;51.380;10.326;2022-08-16T14:14:20;26.40;39.60
59881;DHT22;45751;51.380;10.326;2022-08-16T14:16:58;26.40;39.40
59881;DHT22;45751;51.380;10.326;2022-08-16T14:19:27;26.40;39.70
59881;DHT22;45751;51.380;10.326;2022-08-16T14:21:57;26.40;39.80
59881;DHT22;45751;51.380;10.326;2022-08-16T14:24:46;26.40;39.80
59881;DHT22;45751;51.380;10.326;2022-08-16T14:27:19;26.50;38.90
59881;DHT22;45751;51.380;10.326;2022-08-16T14:29:48;26.50;38.50
59881;DHT22;45751;51.380;10.326;2022-08-16T14:32:20;26.60;38.80
59881;DHT22;45751;51.380;10.326;2022-08-16T14:35:03;26.70;38.70
59881;DHT22;45751;51.380;10.326;2022-08-16T14:37:33;26.90;38.10
59881;DHT22;45751;51.380;10.326;2022-08-16T14:40:01;27.00;38.10
59881;DHT22;45751;51.380;10.326;2022-08-16T14:42:29;27.20;37.90
59881;DHT22;45751;51.380;10.326;2022-08-16T14:44:56;27.50;37.90
59881;DHT22;45751;51.380;10.326;2022-08-16T14:47:26;27.80;37.80
59881;DHT22;45751;51.380;10.326;2022-08-16T14:50:00;28.20;36.70
59881;DHT22;45751;51.380;10.326;2022-08-16T14:52:27;28.60;36.10
59881;DHT22;45751;51.380;10.326;2022-08-16T14:55:14;28.80;35.60
59881;DHT22;45751;51.380;10.326;2022-08-16T14:57:42;29.00;34.40
59881;DHT22;45751;51.380;10.326;2022-08-16T15:00:11;28.90;34.00
59881;DHT22;45751;51.380;10.326;2022-08-16T15:02:41;28.80;34.00
59881;DHT22;45751;51.380;10.326;2022-08-16T15:05:10;28.70;34.10
59881;DHT22;45751;51.380;10.326;2022-08-16T15:07:38;28.60;33.90
59881;DHT22;45751;51.380;10.326;2022-08-16T15:10:07;28.40;34.00
59881;DHT22;45751;51.380;10.326;2022-08-16T15:12:51;28.30;34.10
59881;DHT22;45751;51.380;10.326;2022-08-16T15:15:26;28.20;34.30
59881;DHT22;45751;51.380;10.326;2022-08-16T15:17:54;28.20;34.70
59881;DHT22;45751;51.380;10.326;2022-08-16T15:20:24;28.10;34.70
59881;DHT22;45751;51.380;10.326;2022-08-16T15:22:53;28.00;34.60
59881;DHT22;45751;51.380;10.326;2022-08-16T15:25:30;27.90;35.00
59881;DHT22;45751;51.380;10.326;2022-08-16T15:28:01;27.80;35.00
59881;DHT22;45751;51.380;10.326;2022-08-16T15:30:32;27.80;35.20
59881;DHT22;45751;51.380;10.326;2022-08-16T15:33:21;27.70;35.40
59881;DHT22;45751;51.380;10.326;2022-08-16T15:35:51;27.70;35.10
59881;DHT22;45751;51.380;10.326;2022-08-16T15:38:23;27.60;35.20
59881;DHT22;45751;51.380;10.326;2022-08-16T15:41:28;27.50;35.30
59881;DHT22;45751;51.380;10.326;2022-08-16T15:43:58;27.50;36.00
59881;DHT22;45751;51.380;10.326;2022-08-16T15:46:37;27.50;35.80
59881;DHT22;45751;51.380;10.326;2022-08-16T15:49:24;27.40;35.60
59881;DHT22;45751;51.380;10.326;2022-08-16T15:52:11;27.40;35.60
59881;DHT22;45751;51.380;10.326;2022-08-16T15:54:42;27.40;37.00
59881;DHT22;45751;51.380;10.326;2022-08-16T15:57:18;27.40;35.80
59881;DHT22;45751;51.380;10.326;2022-08-16T15:59:45;27.40;35.60
59881;DHT22;45751;51.380;10.326;2022-08-16T16:02:23;27.30;35.60
59881;DHT22;45751;51.380;10.326;2022-08-16T16:04:56;27.30;36.20